sensor_id;sensor_type;location;lat;lon;timestamp;P1;durP1;ratioP1;P2;durP2;ratioP2
6850;SDS011;3464;42.728;23.296;2023-04-03T00:00:42;14.00;;;4.90;;
6850;SDS011;3464;42.728;23.296;2023-04-03T00:03:09;13.17;;;4.77;;
6850;SDS011;3464;42.728;23.296;2023-04-03T00:05:36;13.93;;;4.37;;
6850;SDS011;3464;42.728;23.296;2023-04-03T00:08:03;15.20;;;5.17;;
6850;SDS011;3464;42.728;23.296;2023-04-03T00:10:33;14.40;;;4.90;;
6850;SDS011;3464;42.728;23.296;2023-04-03T00:13:01;12.97;;;5.00;;
6850;SDS011;3464;42.728;23.296;2023-04-03T00:15:27;17.07;;;5.20;;
6850;SDS011;3464;42.728;23.296;2023-04-03T00:17:54;13.20;;;4.57;;
6850;SDS011;3464;42.728;23.296;2023-04-03T00:20:20;15.90;;;5.23;;
6850;SDS011;3464;42.728;23.296;2023-04-03T00:22:47;13.40;;;5.10;;
6850;SDS011;3464;42.728;23.296;2023-04-03T00:25:13;13.80;;;5.00;;
6850;SDS011;3464;42.728;23.296;2023-04-03T00:27:40;14.63;;;5.60;;
6850;SDS011;3464;42.728;23.296;2023-04-03T00:30:08;13.60;;;4.90;;
6850;SDS011;3464;42.728;23.296;2023-04-03T00:32:34;14.73;;;5.40;;
6850;SDS011;3464;42.728;23.296;2023-04-03T00:35:01;13.43;;;5.13;;
6850;SDS011;3464;42.728;23.296;2023-04-03T00:37:27;13.97;;;5.03;;
6850;SDS011;3464;42.728;23.296;2023-04-03T00:39:54;14.27;;;5.50;;
6850;SDS011;3464;42.728;23.296;2023-04-03T00:42:20;15.73;;;5.07;;
6850;SDS011;3464;42.728;23.296;2023-04-03T00:47:35;17.43;;;6.80;;
6850;SDS011;3464;42.728;23.296;2023-04-03T00:50:02;14.80;;;5.70;;
6850;SDS011;3464;42.728;23.296;2023-04-03T00:52:29;16.83;;;6.80;;
6850;SDS011;3464;42.728;23.296;2023-04-03T00:54:57;21.43;;;8.13;;
6850;SDS011;3464;42.728;23.296;2023-04-03T00:57:23;17.73;;;7.80;;
6850;SDS011;3464;42.728;23.296;2023-04-03T00:59:50;24.40;;;8.80;;
6850;SDS011;3464;42.728;23.296;2023-04-03T01:02:16;17.43;;;7.60;;
6850;SDS011;3464;42.728;23.296;2023-04-03T01:04:44;17.67;;;7.50;;
6850;SDS011;3464;42.728;23.296;2023-04-03T01:07:14;17.57;;;7.50;;
6850;SDS011;3464;42.728;23.296;2023-04-03T01:09:41;15.50;;;6.07;;
6850;SDS011;3464;42.728;23.296;2023-04-03T01:12:14;18.13;;;6.07;;
6850;SDS011;3464;42.728;23.296;2023-04-03T01:14:43;15.50;;;5.53;;
6850;SDS011;3464;42.728;23.296;2023-04-03T01:25:13;16.87;;;4.93;;
6850;SDS011;3464;42.728;23.296;2023-04-03T01:27:41;13.50;;;4.80;;
6850;SDS011;3464;42.728;23.296;2023-04-03T01:30:08;12.13;;;4.30;;
6850;SDS011;3464;42.728;23.296;2023-04-03T01:32:35;13.97;;;3.77;;
6850;SDS011;3464;42.728;23.296;2023-04-03T01:35:02;10.00;;;3.33;;
6850;SDS011;3464;42.728;23.296;2023-04-03T01:37:30;11.40;;;3.63;;
6850;SDS011;3464;42.728;23.296;2023-04-03T01:39:56;13.60;;;4.40;;
6850;SDS011;3464;42.728;23.296;2023-04-03T01:42:23;12.60;;;4.53;;
6850;SDS011;3464;42.728;23.296;2023-04-03T01:44:49;14.00;;;5.17;;
6850;SDS011;3464;42.728;23.296;2023-04-03T01:47:16;15.00;;;5.93;;
6850;SDS011;3464;42.728;23.296;2023-04-03T01:49:43;14.53;;;5.40;;
6850;SDS011;3464;42.728;23.296;2023-04-03T01:52:09;15.30;;;5.87;;
6850;SDS011;3464;42.728;23.296;2023-04-03T01:54:37;15.80;;;6.17;;
6850;SDS011;3464;42.728;23.296;2023-04-03T01:57:03;16.17;;;6.20;;
6850;SDS011;3464;42.728;23.296;2023-04-03T01:59:30;13.20;;;5.47;;
6850;SDS011;3464;42.728;23.296;2023-04-03T02:01:56;14.53;;;5.60;;
6850;SDS011;3464;42.728;23.296;2023-04-03T02:04:23;12.80;;;4.80;;
6850;SDS011;3464;42.728;23.296;2023-04-03T02:06:51;12.73;;;4.97;;
6850;SDS011;3464;42.728;23.296;2023-04-03T02:09:17;12.03;;;4.90;;
6850;SDS011;3464;42.728;23.296;2023-04-03T02:11:44;11.97;;;4.43;;
6850;SDS011;3464;42.728;23.296;2023-04-03T02:14:11;11.00;;;3.50;;
6850;SDS011;3464;42.728;23.296;2023-04-03T02:16:37;10.67;;;4.17;;
6850;SDS011;3464;42.728;23.296;2023-04-03T02:19:04;12.63;;;4.83;;
6850;SDS011;3464;42.728;23.296;2023-04-03T02:21:31;11.37;;;4.20;;
6850;SDS011;3464;42.728;23.296;2023-04-03T02:23:58;12.00;;;3.83;;
6850;SDS011;3464;42.728;23.296;2023-04-03T02:26:24;11.00;;;3.97;;
6850;SDS011;3464;42.728;23.296;2023-04-03T02:28:52;11.17;;;3.67;;
6850;SDS011;3464;42.728;23.296;2023-04-03T02:31:18;11.13;;;4.10;;
6850;SDS011;3464;42.728;23.296;2023-04-03T02:33:45;11.67;;;3.60;;
6850;SDS011;3464;42.728;23.296;2023-04-03T02:36:12;11.93;;;3.80;;
6850;SDS011;3464;42.728;23.296;2023-04-03T02:38:38;12.93;;;3.63;;
6850;SDS011;3464;42.728;23.296;2023-04-03T02:41:08;12.47;;;3.80;;
6850;SDS011;3464;42.728;23.296;2023-04-03T02:43:35;11.77;;;4.20;;
6850;SDS011;3464;42.728;23.296;2023-04-03T02:46:04;10.30;;;3.60;;
6850;SDS011;3464;42.728;23.296;2023-04-03T02:48:31;13.10;;;4.37;;
6850;SDS011;3464;42.728;23.296;2023-04-03T02:50:58;11.50;;;4.47;;
6850;SDS011;3464;42.728;23.296;2023-04-03T02:53:24;11.67;;;5.03;;
6850;SDS011;3464;42.728;23.296;2023-04-03T02:55:51;13.67;;;4.80;;
6850;SDS011;3464;42.728;23.296;2023-04-03T02:58:17;13.80;;;4.97;;
6850;SDS011;3464;42.728;23.296;2023-04-03T03:00:44;16.30;;;5.10;;
6850;SDS011;3464;42.728;23.296;2023-04-03T03:03:10;13.87;;;5.50;;
6850;SDS011;3464;42.728;23.296;2023-04-03T03:05:37;14.87;;;5.60;;
6850;SDS011;3464;42.728;23.296;2023-04-03T03:08:04;14.97;;;5.77;;
6850;SDS011;3464;42.728;23.296;2023-04-03T03:10:31;18.17;;;6.43;;
6850;SDS011;3464;42.728;23.296;2023-04-03T03:12:57;22.13;;;6.43;;
6850;SDS011;3464;42.728;23.296;2023-04-03T03:15:24;13.80;;;6.07;;
6850;SDS011;3464;42.728;23.296;2023-04-03T03:17:51;14.33;;;6.10;;
6850;SDS011;3464;42.728;23.296;2023-04-03T03:20:18;14.70;;;5.70;;
6850;SDS011;3464;42.728;23.296;2023-04-03T03:22:44;17.20;;;5.90;;
6850;SDS011;3464;42.728;23.296;2023-04-03T03:25:11;18.23;;;6.73;;
6850;SDS011;3464;42.728;23.296;2023-04-03T03:27:37;20.37;;;7.30;;
6850;SDS011;3464;42.728;23.296;2023-04-03T03:30:04;22.13;;;7.87;;
6850;SDS011;3464;42.728;23.296;2023-04-03T03:32:32;17.57;;;8.03;;
6850;SDS011;3464;42.728;23.296;2023-04-03T03:34:58;18.20;;;8.20;;
6850;SDS011;3464;42.728;23.296;2023-04-03T03:37:25;19.00;;;7.87;;
6850;SDS011;3464;42.728;23.296;2023-04-03T03:39:52;17.10;;;7.70;;
6850;SDS011;3464;42.728;23.296;2023-04-03T03:42:18;20.17;;;8.43;;
6850;SDS011;3464;42.728;23.296;2023-04-03T03:44:45;17.40;;;8.73;;
6850;SDS011;3464;42.728;23.296;2023-04-03T03:47:12;21.70;;;8.40;;
6850;SDS011;3464;42.728;23.296;2023-04-03T03:49:38;19.97;;;9.50;;
6850;SDS011;3464;42.728;23.296;2023-04-03T03:52:05;23.30;;;8.87;;
6850;SDS011;3464;42.728;23.296;2023-04-03T03:54:32;19.43;;;9.93;;
6850;SDS011;3464;42.728;23.296;2023-04-03T03:56:58;25.40;;;10.80;;
6850;SDS011;3464;42.728;23.296;2023-04-03T03:59:25;27.23;;;10.80;;
6850;SDS011;3464;42.728;23.296;2023-04-03T04:01:52;24.10;;;11.13;;
6850;SDS011;3464;42.728;23.296;2023-04-03T04:04:18;24.30;;;11.17;;
6850;SDS011;3464;42.728;23.296;2023-04-03T04:06:45;21.77;;;10.70;;
6850;SDS011;3464;42.728;23.296;2023-04-03T04:09:12;27.20;;;11.70;;
6850;SDS011;3464;42.728;23.296;2023-04-03T04:11:39;29.20;;;11.80;;
6850;SDS011;3464;42.728;23.296;2023-04-03T04:14:06;23.40;;;11.17;;
6850;SDS011;3464;42.728;23.296;2023-04-03T04:16:32;19.27;;;9.90;;
6850;SDS011;3464;42.728;23.296;2023-04-03T04:18:59;22.70;;;11.33;;
6850;SDS011;3464;42.728;23.296;2023-04-03T04:21:27;25.20;;;10.63;;
6850;SDS011;3464;42.728;23.296;2023-04-03T04:23:53;22.00;;;11.03;;
6850;SDS011;3464;42.728;23.296;2023-04-03T04:26:20;23.80;;;11.50;;
6850;SDS011;3464;42.728;23.296;2023-04-03T04:28:47;23.80;;;11.80;;
6850;SDS011;3464;42.728;23.296;2023-04-03T04:31:15;29.00;;;12.10;;
6850;SDS011;3464;42.728;23.296;2023-04-03T04:33:42;41.80;;;17.80;;
6850;SDS011;3464;42.728;23.296;2023-04-03T04:36:10;38.30;;;19.90;;
6850;SDS011;3464;42.728;23.296;2023-04-03T04:38:36;46.30;;;26.50;;
6850;SDS011;3464;42.728;23.296;2023-04-03T04:41:03;55.47;;;29.13;;
6850;SDS011;3464;42.728;23.296;2023-04-03T04:43:30;38.40;;;19.57;;
6850;SDS011;3464;42.728;23.296;2023-04-03T04:46:06;34.30;;;16.33;;
6850;SDS011;3464;42.728;23.296;2023-04-03T04:48:33;29.70;;;13.60;;
6850;SDS011;3464;42.728;23.296;2023-04-03T04:50:59;34.27;;;13.30;;
6850;SDS011;3464;42.728;23.296;2023-04-03T04:53:26;28.90;;;14.47;;
6850;SDS011;3464;42.728;23.296;2023-04-03T04:55:52;32.33;;;14.40;;
6850;SDS011;3464;42.728;23.296;2023-04-03T04:58:19;27.10;;;12.00;;
6850;SDS011;3464;42.728;23.296;2023-04-03T05:00:46;32.20;;;14.20;;
6850;SDS011;3464;42.728;23.296;2023-04-03T05:03:13;31.80;;;15.37;;
6850;SDS011;3464;42.728;23.296;2023-04-03T05:05:39;45.37;;;14.60;;
6850;SDS011;3464;42.728;23.296;2023-04-03T05:08:07;34.47;;;14.00;;
6850;SDS011;3464;42.728;23.296;2023-04-03T05:10:34;29.00;;;12.90;;
6850;SDS011;3464;42.728;23.296;2023-04-03T05:13:02;29.90;;;13.80;;
6850;SDS011;3464;42.728;23.296;2023-04-03T05:15:29;25.40;;;12.33;;
6850;SDS011;3464;42.728;23.296;2023-04-03T05:17:58;25.47;;;11.57;;
6850;SDS011;3464;42.728;23.296;2023-04-03T05:20:25;26.40;;;10.23;;
6850;SDS011;3464;42.728;23.296;2023-04-03T05:22:51;24.33;;;10.47;;
6850;SDS011;3464;42.728;23.296;2023-04-03T05:25:18;31.83;;;11.00;;
6850;SDS011;3464;42.728;23.296;2023-04-03T05:27:46;27.40;;;11.27;;
6850;SDS011;3464;42.728;23.296;2023-04-03T05:30:13;29.93;;;13.17;;
6850;SDS011;3464;42.728;23.296;2023-04-03T05:32:40;30.57;;;14.70;;
6850;SDS011;3464;42.728;23.296;2023-04-03T05:35:07;32.97;;;14.17;;
6850;SDS011;3464;42.728;23.296;2023-04-03T05:37:38;33.47;;;12.70;;
6850;SDS011;3464;42.728;23.296;2023-04-03T05:40:05;34.17;;;13.97;;
6850;SDS011;3464;42.728;23.296;2023-04-03T05:42:32;30.50;;;12.70;;
6850;SDS011;3464;42.728;23.296;2023-04-03T05:44:58;28.43;;;12.40;;
6850;SDS011;3464;42.728;23.296;2023-04-03T05:47:25;48.13;;;13.90;;
6850;SDS011;3464;42.728;23.296;2023-04-03T05:49:52;37.33;;;13.23;;
6850;SDS011;3464;42.728;23.296;2023-04-03T05:52:21;36.97;;;13.47;;
6850;SDS011;3464;42.728;23.296;2023-04-03T05:54:48;32.17;;;12.03;;
6850;SDS011;3464;42.728;23.296;2023-04-03T05:57:15;35.13;;;12.00;;
6850;SDS011;3464;42.728;23.296;2023-04-03T05:59:42;23.80;;;11.00;;
6850;SDS011;3464;42.728;23.296;2023-04-03T06:02:11;18.07;;;7.87;;
6850;SDS011;3464;42.728;23.296;2023-04-03T06:04:38;19.17;;;8.93;;
6850;SDS011;3464;42.728;23.296;2023-04-03T06:07:06;22.70;;;8.57;;
6850;SDS011;3464;42.728;23.296;2023-04-03T06:09:33;18.50;;;7.00;;
6850;SDS011;3464;42.728;23.296;2023-04-03T06:12:00;21.43;;;7.00;;
6850;SDS011;3464;42.728;23.296;2023-04-03T06:14:27;16.70;;;6.93;;
6850;SDS011;3464;42.728;23.296;2023-04-03T06:16:54;20.03;;;6.27;;
6850;SDS011;3464;42.728;23.296;2023-04-03T06:19:21;28.60;;;7.80;;
6850;SDS011;3464;42.728;23.296;2023-04-03T06:21:48;23.50;;;9.37;;
6850;SDS011;3464;42.728;23.296;2023-04-03T06:24:16;21.00;;;9.33;;
6850;SDS011;3464;42.728;23.296;2023-04-03T06:26:43;27.53;;;10.30;;
6850;SDS011;3464;42.728;23.296;2023-04-03T06:29:09;30.70;;;9.10;;
6850;SDS011;3464;42.728;23.296;2023-04-03T06:31:36;30.10;;;10.70;;
6850;SDS011;3464;42.728;23.296;2023-04-03T06:34:03;22.10;;;10.00;;
6850;SDS011;3464;42.728;23.296;2023-04-03T06:36:30;20.50;;;8.43;;
6850;SDS011;3464;42.728;23.296;2023-04-03T06:38:58;19.37;;;8.03;;
6850;SDS011;3464;42.728;23.296;2023-04-03T06:41:25;23.07;;;9.13;;
6850;SDS011;3464;42.728;23.296;2023-04-03T06:43:52;22.80;;;7.57;;
6850;SDS011;3464;42.728;23.296;2023-04-03T06:46:20;22.77;;;7.80;;
6850;SDS011;3464;42.728;23.296;2023-04-03T06:48:46;24.03;;;8.80;;
6850;SDS011;3464;42.728;23.296;2023-04-03T06:51:21;25.77;;;8.60;;
6850;SDS011;3464;42.728;23.296;2023-04-03T06:53:49;19.87;;;7.77;;
6850;SDS011;3464;42.728;23.296;2023-04-03T06:56:15;23.60;;;7.80;;
6850;SDS011;3464;42.728;23.296;2023-04-03T06:58:42;20.70;;;7.17;;
6850;SDS011;3464;42.728;23.296;2023-04-03T07:01:09;18.47;;;7.17;;
6850;SDS011;3464;42.728;23.296;2023-04-03T07:03:36;20.33;;;7.73;;
6850;SDS011;3464;42.728;23.296;2023-04-03T07:06:03;17.90;;;7.63;;
6850;SDS011;3464;42.728;23.296;2023-04-03T07:08:29;18.90;;;7.57;;
6850;SDS011;3464;42.728;23.296;2023-04-03T07:10:57;25.63;;;8.73;;
6850;SDS011;3464;42.728;23.296;2023-04-03T07:13:23;23.30;;;9.83;;
6850;SDS011;3464;42.728;23.296;2023-04-03T07:15:50;31.90;;;12.90;;
6850;SDS011;3464;42.728;23.296;2023-04-03T07:18:17;28.47;;;12.03;;
6850;SDS011;3464;42.728;23.296;2023-04-03T07:20:44;29.40;;;12.80;;
6850;SDS011;3464;42.728;23.296;2023-04-03T07:23:11;30.13;;;12.50;;
6850;SDS011;3464;42.728;23.296;2023-04-03T07:25:42;26.03;;;11.03;;
6850;SDS011;3464;42.728;23.296;2023-04-03T07:28:09;25.90;;;10.80;;
6850;SDS011;3464;42.728;23.296;2023-04-03T07:30:44;25.23;;;10.63;;
6850;SDS011;3464;42.728;23.296;2023-04-03T07:33:14;26.73;;;10.80;;
6850;SDS011;3464;42.728;23.296;2023-04-03T07:35:41;24.90;;;11.13;;
6850;SDS011;3464;42.728;23.296;2023-04-03T07:38:08;27.40;;;10.70;;
6850;SDS011;3464;42.728;23.296;2023-04-03T07:40:34;27.27;;;14.17;;
6850;SDS011;3464;42.728;23.296;2023-04-03T07:43:01;32.20;;;14.20;;
6850;SDS011;3464;42.728;23.296;2023-04-03T07:45:28;22.37;;;11.60;;
6850;SDS011;3464;42.728;23.296;2023-04-03T07:47:55;25.80;;;11.47;;
6850;SDS011;3464;42.728;23.296;2023-04-03T07:50:22;23.30;;;10.70;;
6850;SDS011;3464;42.728;23.296;2023-04-03T07:52:49;20.87;;;10.17;;
6850;SDS011;3464;42.728;23.296;2023-04-03T07:55:15;26.83;;;9.90;;
6850;SDS011;3464;42.728;23.296;2023-04-03T07:57:42;20.77;;;7.87;;
6850;SDS011;3464;42.728;23.296;2023-04-03T08:00:09;15.80;;;6.20;;
6850;SDS011;3464;42.728;23.296;2023-04-03T08:02:37;19.00;;;6.77;;
6850;SDS011;3464;42.728;23.296;2023-04-03T08:05:03;27.10;;;7.27;;
6850;SDS011;3464;42.728;23.296;2023-04-03T08:07:30;15.30;;;6.40;;
6850;SDS011;3464;42.728;23.296;2023-04-03T08:09:57;17.20;;;6.73;;
6850;SDS011;3464;42.728;23.296;2023-04-03T08:12:24;17.40;;;7.10;;
6850;SDS011;3464;42.728;23.296;2023-04-03T08:14:56;19.63;;;7.33;;
6850;SDS011;3464;42.728;23.296;2023-04-03T08:17:24;17.13;;;6.30;;
6850;SDS011;3464;42.728;23.296;2023-04-03T08:19:50;17.47;;;6.40;;
6850;SDS011;3464;42.728;23.296;2023-04-03T08:25:07;20.63;;;7.27;;
6850;SDS011;3464;42.728;23.296;2023-04-03T08:27:48;20.20;;;6.97;;
6850;SDS011;3464;42.728;23.296;2023-04-03T08:30:16;25.60;;;8.23;;
6850;SDS011;3464;42.728;23.296;2023-04-03T08:32:44;20.67;;;7.87;;
6850;SDS011;3464;42.728;23.296;2023-04-03T08:35:15;23.00;;;8.07;;
6850;SDS011;3464;42.728;23.296;2023-04-03T08:37:42;25.17;;;8.33;;
6850;SDS011;3464;42.728;23.296;2023-04-03T08:40:13;20.63;;;7.87;;
6850;SDS011;3464;42.728;23.296;2023-04-03T08:42:45;23.90;;;9.30;;
6850;SDS011;3464;42.728;23.296;2023-04-03T08:45:45;21.40;;;9.57;;
6850;SDS011;3464;42.728;23.296;2023-04-03T08:48:15;21.97;;;9.80;;
6850;SDS011;3464;42.728;23.296;2023-04-03T08:50:43;26.17;;;11.00;;
6850;SDS011;3464;42.728;23.296;2023-04-03T08:53:12;25.80;;;10.30;;
6850;SDS011;3464;42.728;23.296;2023-04-03T08:55:48;26.43;;;12.00;;
6850;SDS011;3464;42.728;23.296;2023-04-03T08:58:33;35.07;;;12.40;;
6850;SDS011;3464;42.728;23.296;2023-04-03T09:01:01;29.43;;;11.90;;
6850;SDS011;3464;42.728;23.296;2023-04-03T09:03:28;29.00;;;11.70;;
6850;SDS011;3464;42.728;23.296;2023-04-03T09:15:19;27.13;;;9.43;;
6850;SDS011;3464;42.728;23.296;2023-04-03T09:17:35;25.13;;;9.70;;
6850;SDS011;3464;42.728;23.296;2023-04-03T09:20:20;26.10;;;9.70;;
6850;SDS011;3464;42.728;23.296;2023-04-03T09:22:44;22.63;;;10.83;;
6850;SDS011;3464;42.728;23.296;2023-04-03T09:25:15;28.60;;;12.43;;
6850;SDS011;3464;42.728;23.296;2023-04-03T09:27:43;33.57;;;12.93;;
6850;SDS011;3464;42.728;23.296;2023-04-03T09:30:14;29.07;;;12.60;;
6850;SDS011;3464;42.728;23.296;2023-04-03T09:32:41;26.13;;;10.77;;
6850;SDS011;3464;42.728;23.296;2023-04-03T09:37:42;32.60;;;14.57;;
6850;SDS011;3464;42.728;23.296;2023-04-03T09:40:32;34.63;;;15.13;;
6850;SDS011;3464;42.728;23.296;2023-04-03T09:43:21;31.00;;;14.73;;
6850;SDS011;3464;42.728;23.296;2023-04-03T09:46:15;32.10;;;14.50;;
6850;SDS011;3464;42.728;23.296;2023-04-03T09:48:29;37.30;;;17.47;;
6850;SDS011;3464;42.728;23.296;2023-04-03T09:50:57;34.20;;;15.53;;
6850;SDS011;3464;42.728;23.296;2023-04-03T09:53:28;34.20;;;14.03;;
6850;SDS011;3464;42.728;23.296;2023-04-03T09:56:22;34.60;;;14.20;;
6850;SDS011;3464;42.728;23.296;2023-04-03T09:58:49;36.33;;;13.00;;
6850;SDS011;3464;42.728;23.296;2023-04-03T10:01:35;26.63;;;13.47;;
6850;SDS011;3464;42.728;23.296;2023-04-03T10:04:18;32.63;;;13.87;;
6850;SDS011;3464;42.728;23.296;2023-04-03T10:06:49;30.20;;;14.77;;
6850;SDS011;3464;42.728;23.296;2023-04-03T10:09:23;27.73;;;13.07;;
6850;SDS011;3464;42.728;23.296;2023-04-03T10:12:03;26.53;;;13.07;;
6850;SDS011;3464;42.728;23.296;2023-04-03T10:14:59;29.13;;;11.77;;
6850;SDS011;3464;42.728;23.296;2023-04-03T10:17:36;24.50;;;11.30;;
6850;SDS011;3464;42.728;23.296;2023-04-03T10:23:14;21.17;;;10.77;;
6850;SDS011;3464;42.728;23.296;2023-04-03T10:25:50;28.67;;;10.13;;
6850;SDS011;3464;42.728;23.296;2023-04-03T10:28:21;23.23;;;9.60;;
6850;SDS011;3464;42.728;23.296;2023-04-03T10:31:31;27.47;;;10.33;;
6850;SDS011;3464;42.728;23.296;2023-04-03T10:33:53;27.70;;;9.67;;
6850;SDS011;3464;42.728;23.296;2023-04-03T10:39:38;26.90;;;9.63;;
6850;SDS011;3464;42.728;23.296;2023-04-03T10:45:19;31.10;;;11.43;;
6850;SDS011;3464;42.728;23.296;2023-04-03T10:48:32;20.60;;;8.07;;
6850;SDS011;3464;42.728;23.296;2023-04-03T10:50:58;33.80;;;9.23;;
6850;SDS011;3464;42.728;23.296;2023-04-03T10:53:34;27.67;;;9.73;;
6850;SDS011;3464;42.728;23.296;2023-04-03T10:56:11;25.50;;;9.67;;
6850;SDS011;3464;42.728;23.296;2023-04-03T10:58:36;22.93;;;8.53;;
6850;SDS011;3464;42.728;23.296;2023-04-03T11:01:05;18.20;;;7.57;;
6850;SDS011;3464;42.728;23.296;2023-04-03T11:03:31;17.03;;;6.00;;
6850;SDS011;3464;42.728;23.296;2023-04-03T11:05:58;29.33;;;7.43;;
6850;SDS011;3464;42.728;23.296;2023-04-03T11:09:31;22.93;;;7.10;;
6850;SDS011;3464;42.728;23.296;2023-04-03T11:11:09;17.80;;;6.40;;
6850;SDS011;3464;42.728;23.296;2023-04-03T11:13:38;16.67;;;6.33;;
6850;SDS011;3464;42.728;23.296;2023-04-03T11:16:08;17.07;;;6.53;;
6850;SDS011;3464;42.728;23.296;2023-04-03T11:18:43;16.40;;;6.87;;
6850;SDS011;3464;42.728;23.296;2023-04-03T11:26:31;21.77;;;6.70;;
6850;SDS011;3464;42.728;23.296;2023-04-03T11:29:02;16.93;;;6.83;;
6850;SDS011;3464;42.728;23.296;2023-04-03T11:32:38;19.83;;;7.33;;
6850;SDS011;3464;42.728;23.296;2023-04-03T11:36:52;15.47;;;5.03;;
6850;SDS011;3464;42.728;23.296;2023-04-03T11:39:23;13.90;;;5.10;;
6850;SDS011;3464;42.728;23.296;2023-04-03T11:41:50;15.37;;;5.50;;
6850;SDS011;3464;42.728;23.296;2023-04-03T11:53:33;14.73;;;6.60;;
6850;SDS011;3464;42.728;23.296;2023-04-03T11:59:29;12.67;;;4.47;;
6850;SDS011;3464;42.728;23.296;2023-04-03T12:01:49;14.33;;;5.70;;
6850;SDS011;3464;42.728;23.296;2023-04-03T12:04:17;14.73;;;5.90;;
6850;SDS011;3464;42.728;23.296;2023-04-03T12:06:53;13.60;;;5.30;;
6850;SDS011;3464;42.728;23.296;2023-04-03T12:09:27;20.30;;;6.90;;
6850;SDS011;3464;42.728;23.296;2023-04-03T12:11:57;12.97;;;5.83;;
6850;SDS011;3464;42.728;23.296;2023-04-03T12:14:23;15.40;;;6.77;;
6850;SDS011;3464;42.728;23.296;2023-04-03T12:16:53;17.20;;;8.00;;
6850;SDS011;3464;42.728;23.296;2023-04-03T12:19:30;18.67;;;8.33;;
6850;SDS011;3464;42.728;23.296;2023-04-03T12:22:08;18.57;;;8.70;;
6850;SDS011;3464;42.728;23.296;2023-04-03T12:34:24;25.13;;;8.30;;
6850;SDS011;3464;42.728;23.296;2023-04-03T12:37:07;14.70;;;6.00;;
6850;SDS011;3464;42.728;23.296;2023-04-03T12:40:00;14.03;;;5.50;;
6850;SDS011;3464;42.728;23.296;2023-04-03T12:45:40;14.90;;;5.33;;
6850;SDS011;3464;42.728;23.296;2023-04-03T12:48:17;17.07;;;6.10;;
6850;SDS011;3464;42.728;23.296;2023-04-03T12:50:49;13.97;;;6.17;;
6850;SDS011;3464;42.728;23.296;2023-04-03T12:53:58;17.63;;;8.10;;
6850;SDS011;3464;42.728;23.296;2023-04-03T12:56:41;22.90;;;12.00;;
6850;SDS011;3464;42.728;23.296;2023-04-03T12:59:35;19.13;;;8.43;;
6850;SDS011;3464;42.728;23.296;2023-04-03T13:02:03;16.60;;;8.47;;
6850;SDS011;3464;42.728;23.296;2023-04-03T13:04:31;16.47;;;9.23;;
6850;SDS011;3464;42.728;23.296;2023-04-03T13:06:59;16.53;;;9.10;;
6850;SDS011;3464;42.728;23.296;2023-04-03T13:09:36;18.87;;;8.53;;
6850;SDS011;3464;42.728;23.296;2023-04-03T13:12:11;16.67;;;8.90;;
6850;SDS011;3464;42.728;23.296;2023-04-03T13:20:49;20.83;;;10.60;;
6850;SDS011;3464;42.728;23.296;2023-04-03T13:23:15;19.20;;;12.10;;
6850;SDS011;3464;42.728;23.296;2023-04-03T13:25:42;19.83;;;12.40;;
6850;SDS011;3464;42.728;23.296;2023-04-03T13:28:10;23.97;;;13.63;;
6850;SDS011;3464;42.728;23.296;2023-04-03T13:30:37;23.93;;;14.03;;
6850;SDS011;3464;42.728;23.296;2023-04-03T13:36:16;20.60;;;11.90;;
6850;SDS011;3464;42.728;23.296;2023-04-03T13:38:42;23.70;;;14.00;;
6850;SDS011;3464;42.728;23.296;2023-04-03T13:44:24;23.90;;;14.23;;
6850;SDS011;3464;42.728;23.296;2023-04-03T13:46:54;21.80;;;13.93;;
6850;SDS011;3464;42.728;23.296;2023-04-03T13:49:40;24.03;;;15.47;;
6850;SDS011;3464;42.728;23.296;2023-04-03T13:52:23;24.67;;;15.30;;
6850;SDS011;3464;42.728;23.296;2023-04-03T13:54:54;28.40;;;15.73;;
6850;SDS011;3464;42.728;23.296;2023-04-03T13:57:24;24.97;;;16.50;;
6850;SDS011;3464;42.728;23.296;2023-04-03T13:59:51;24.43;;;15.60;;
6850;SDS011;3464;42.728;23.296;2023-04-03T14:02:22;23.43;;;15.27;;
6850;SDS011;3464;42.728;23.296;2023-04-03T14:05:02;23.90;;;14.50;;
6850;SDS011;3464;42.728;23.296;2023-04-03T14:07:29;22.83;;;14.57;;
6850;SDS011;3464;42.728;23.296;2023-04-03T14:09:56;22.97;;;14.40;;
6850;SDS011;3464;42.728;23.296;2023-04-03T14:12:34;23.60;;;14.63;;
6850;SDS011;3464;42.728;23.296;2023-04-03T14:15:01;19.20;;;11.87;;
6850;SDS011;3464;42.728;23.296;2023-04-03T14:17:28;16.17;;;8.70;;
6850;SDS011;3464;42.728;23.296;2023-04-03T14:19:55;16.27;;;10.17;;
6850;SDS011;3464;42.728;23.296;2023-04-03T14:22:29;17.00;;;9.60;;
6850;SDS011;3464;42.728;23.296;2023-04-03T14:24:55;18.43;;;10.40;;
6850;SDS011;3464;42.728;23.296;2023-04-03T14:27:25;19.13;;;9.90;;
6850;SDS011;3464;42.728;23.296;2023-04-03T14:29:52;14.37;;;8.60;;
6850;SDS011;3464;42.728;23.296;2023-04-03T14:32:21;16.23;;;9.87;;
6850;SDS011;3464;42.728;23.296;2023-04-03T14:34:49;14.53;;;9.50;;
6850;SDS011;3464;42.728;23.296;2023-04-03T14:37:17;15.10;;;9.07;;
6850;SDS011;3464;42.728;23.296;2023-04-03T14:39:42;16.63;;;8.53;;
6850;SDS011;3464;42.728;23.296;2023-04-03T14:42:16;13.37;;;7.60;;
6850;SDS011;3464;42.728;23.296;2023-04-03T14:44:42;15.17;;;8.60;;
6850;SDS011;3464;42.728;23.296;2023-04-03T14:47:19;15.30;;;8.93;;
6850;SDS011;3464;42.728;23.296;2023-04-03T14:49:45;15.97;;;8.60;;
6850;SDS011;3464;42.728;23.296;2023-04-03T14:52:16;18.87;;;10.00;;
6850;SDS011;3464;42.728;23.296;2023-04-03T14:54:47;16.77;;;9.30;;
6850;SDS011;3464;42.728;23.296;2023-04-03T14:57:19;15.83;;;8.67;;
6850;SDS011;3464;42.728;23.296;2023-04-03T15:06:19;15.73;;;9.50;;
6850;SDS011;3464;42.728;23.296;2023-04-03T15:25:30;17.07;;;10.23;;
6850;SDS011;3464;42.728;23.296;2023-04-03T15:27:57;19.27;;;10.93;;
6850;SDS011;3464;42.728;23.296;2023-04-03T15:30:26;19.63;;;11.33;;
6850;SDS011;3464;42.728;23.296;2023-04-03T15:32:54;20.27;;;10.90;;
6850;SDS011;3464;42.728;23.296;2023-04-03T15:35:23;18.23;;;11.10;;
6850;SDS011;3464;42.728;23.296;2023-04-03T15:37:49;20.77;;;11.23;;
6850;SDS011;3464;42.728;23.296;2023-04-03T15:40:18;18.03;;;11.63;;
6850;SDS011;3464;42.728;23.296;2023-04-03T15:42:45;21.30;;;12.67;;
6850;SDS011;3464;42.728;23.296;2023-04-03T15:45:12;17.90;;;10.57;;
6850;SDS011;3464;42.728;23.296;2023-04-03T15:47:41;21.40;;;11.73;;
6850;SDS011;3464;42.728;23.296;2023-04-03T15:50:08;20.07;;;11.70;;
6850;SDS011;3464;42.728;23.296;2023-04-03T15:52:37;22.93;;;12.70;;
6850;SDS011;3464;42.728;23.296;2023-04-03T15:55:04;24.20;;;14.27;;
6850;SDS011;3464;42.728;23.296;2023-04-03T15:57:32;19.07;;;12.20;;
6850;SDS011;3464;42.728;23.296;2023-04-03T16:29:25;15.30;;;7.43;;
6850;SDS011;3464;42.728;23.296;2023-04-03T16:31:53;15.37;;;8.60;;
6850;SDS011;3464;42.728;23.296;2023-04-03T16:34:20;14.40;;;8.00;;
6850;SDS011;3464;42.728;23.296;2023-04-03T16:36:48;13.47;;;7.20;;
6850;SDS011;3464;42.728;23.296;2023-04-03T16:39:15;16.70;;;8.30;;
6850;SDS011;3464;42.728;23.296;2023-04-03T16:41:42;17.37;;;7.97;;
6850;SDS011;3464;42.728;23.296;2023-04-03T16:44:09;12.77;;;7.00;;
6850;SDS011;3464;42.728;23.296;2023-04-03T16:46:35;15.00;;;7.80;;
6850;SDS011;3464;42.728;23.296;2023-04-03T16:49:02;14.00;;;7.13;;
6850;SDS011;3464;42.728;23.296;2023-04-03T16:51:29;18.60;;;9.53;;
6850;SDS011;3464;42.728;23.296;2023-04-03T16:53:55;16.27;;;8.97;;
6850;SDS011;3464;42.728;23.296;2023-04-03T16:56:23;15.00;;;8.90;;
6850;SDS011;3464;42.728;23.296;2023-04-03T16:58:50;27.00;;;13.20;;
6850;SDS011;3464;42.728;23.296;2023-04-03T17:01:18;16.10;;;9.70;;
6850;SDS011;3464;42.728;23.296;2023-04-03T17:09:30;18.17;;;9.77;;
6850;SDS011;3464;42.728;23.296;2023-04-03T17:11:58;20.20;;;9.90;;
6850;SDS011;3464;42.728;23.296;2023-04-03T17:14:26;18.90;;;9.13;;